Time;durP1;ratioP1;P1;durP2;ratioP2;P2;SDS_P1;SDS_P2;PMS_P1;PMS_P2;Temp;Humidity;BMP_temperature;BMP_pressure;BME280_temperature;BME280_humidity;BME280_pressure;Samples;Min_cycle;Max_cycle;Signal;HPM_P1;HPM_P2
2022/03/17 00:00:07;;;;;;;20.98;13.57;;;;;;;7.21;73.84;101755.84;5058413;28;20103;-85
2022/03/17 00:02:34;;;;;;;20.00;12.95;;;;;;;7.20;73.63;101763.63;5033605;28;20297;-86
2022/03/17 00:05:01;;;;;;;21.35;13.75;;;;;;;7.19;73.88;101754.91;5045018;28;20056;-85
2022/03/17 00:07:29;;;;;;;17.90;12.43;;;;;;;7.19;73.91;101762.72;5041255;28;20087;-85
2022/03/17 00:09:56;;;;;;;19.98;12.95;;;;;;;7.18;73.80;101763.56;5050231;28;20053;-85
2022/03/17 00:12:23;;;;;;;20.48;13.15;;;;;;;7.18;74.15;101750.53;5035660;28;20045;-85
2022/03/17 00:14:51;;;;;;;21.10;13.07;;;;;;;7.18;73.86;101753.13;5050192;28;20095;-85
2022/03/17 00:17:17;;;;;;;18.63;13.38;;;;;;;7.18;74.19;101758.34;5050068;28;20348;-85
2022/03/17 00:19:45;;;;;;;21.25;13.27;;;;;;;7.18;73.76;101753.13;5050977;28;20040;-85
2022/03/17 00:22:15;;;;;;;23.98;14.23;;;;;;;7.18;74.38;101753.13;5035707;28;20064;-85
2022/03/17 00:24:42;;;;;;;16.45;12.73;;;;;;;7.17;73.91;101754.00;5032828;28;20076;-86
2022/03/17 00:27:09;;;;;;;18.40;12.85;;;;;;;7.17;74.13;101753.13;5065155;28;20465;-84
2022/03/17 00:29:40;;;;;;;17.60;11.52;;;;;;;7.16;73.96;101753.94;5032867;28;20583;-85
2022/03/17 00:32:09;;;;;;;18.42;12.52;;;;;;;7.15;73.97;101747.00;5034290;28;20051;-85
2022/03/17 00:35:35;;;;;;;19.58;12.45;;;;;;;7.11;74.36;101741.72;5042792;28;20474;-85
2022/03/17 00:37:24;;;;;;;17.60;11.95;;;;;;;7.09;74.55;101732.09;5022887;28;20053;-85
2022/03/17 00:39:54;;;;;;;20.50;13.57;;;;;;;7.06;74.54;101727.69;5050596;28;20053;-85
2022/03/17 00:42:22;;;;;;;22.48;12.85;;;;;;;7.05;74.71;101727.66;5050209;28;20048;-85
2022/03/17 00:44:50;;;;;;;18.23;13.20;;;;;;;7.03;75.11;101717.22;5035662;28;20105;-85
2022/03/17 00:47:17;;;;;;;20.85;13.30;;;;;;;7.01;74.75;101708.50;5033472;28;20082;-86
2022/03/17 00:49:43;;;;;;;17.17;12.13;;;;;;;7.00;74.70;101717.19;5051441;28;20044;-85
2022/03/17 00:52:11;;;;;;;20.58;13.80;;;;;;;6.99;74.98;101724.94;5042982;28;20394;-85
2022/03/17 00:54:42;;;;;;;22.08;14.55;;;;;;;6.97;75.00;101732.69;5046500;28;20383;-85
2022/03/17 00:57:13;;;;;;;19.80;14.25;;;;;;;6.93;75.36;101736.94;5047464;28;20078;-85
2022/03/17 00:59:41;;;;;;;21.75;14.07;;;;;;;6.92;75.21;101735.22;5030307;28;20135;-85
2022/03/17 01:02:08;;;;;;;20.95;14.43;;;;;;;6.91;74.93;101724.75;5046909;28;20076;-86
2022/03/17 01:04:36;;;;;;;21.77;14.93;;;;;;;6.89;75.29;101729.91;5040464;28;20048;-85
2022/03/17 01:07:03;;;;;;;19.95;14.77;;;;;;;6.86;75.76;101732.47;5047873;28;20044;-85
2022/03/17 01:09:30;;;;;;;22.38;14.98;;;;;;;6.84;75.69;101730.66;5046783;28;20052;-84
2022/03/17 01:11:57;;;;;;;25.20;14.77;;;;;;;6.81;75.76;101739.28;5025061;28;20053;-83
2022/03/17 01:14:24;;;;;;;26.23;15.63;;;;;;;6.80;75.93;101742.72;5051283;28;20487;-85
2022/03/17 01:16:51;;;;;;;23.98;14.77;;;;;;;6.78;76.40;101750.50;5043924;28;20059;-85
2022/03/17 01:19:20;;;;;;;20.90;14.25;;;;;;;6.76;76.41;101746.97;5057379;28;20052;-85
2022/03/17 01:21:51;;;;;;;24.08;14.40;;;;;;;6.74;76.50;101750.38;5041126;28;20499;-83
2022/03/17 01:24:18;;;;;;;23.23;15.20;;;;;;;6.72;76.32;101758.16;5055943;28;20159;-84
2022/03/17 01:26:45;;;;;;;24.60;16.00;;;;;;;6.70;76.32;101748.53;5022574;28;20068;-86
2022/03/17 01:29:13;;;;;;;20.15;14.80;;;;;;;6.68;76.31;101747.63;5045313;28;20131;-85
2022/03/17 01:31:40;;;;;;;21.02;14.68;;;;;;;6.71;76.83;101752.91;5065905;28;20507;-85
2022/03/17 01:34:06;;;;;;;22.20;15.57;;;;;;;6.69;76.42;101747.66;5040958;28;20403;-85
2022/03/17 01:36:33;;;;;;;21.75;14.68;;;;;;;6.71;76.61;101747.69;5022525;28;20052;-85
2022/03/17 01:38:59;;;;;;;23.70;14.85;;;;;;;6.72;76.75;101747.72;5040270;28;20060;-85
2022/03/17 01:41:26;;;;;;;24.95;15.95;;;;;;;6.72;76.88;101739.94;5022164;28;20094;-85
2022/03/17 01:43:52;;;;;;;21.20;15.23;;;;;;;6.75;76.73;101746.94;5043204;28;20131;-85
2022/03/17 01:46:19;;;;;;;23.33;15.05;;;;;;;6.76;76.90;101748.69;5043360;28;22242;-85
2022/03/17 01:48:46;;;;;;;23.02;16.00;;;;;;;6.74;76.55;101738.25;5046936;28;20103;-85
2022/03/17 01:51:12;;;;;;;24.30;16.40;;;;;;;6.76;76.51;101743.50;5028853;28;20052;-84
2022/03/17 01:53:39;;;;;;;23.10;16.05;;;;;;;6.76;76.41;101733.94;5028359;28;20047;-86
2022/03/17 01:56:06;;;;;;;26.45;17.48;;;;;;;6.76;76.55;101730.47;5022019;28;20439;-85
2022/03/17 01:58:32;;;;;;;23.80;16.05;;;;;;;6.75;76.67;101724.41;5028260;28;20048;-85
2022/03/17 02:00:59;;;;;;;26.30;16.27;;;;;;;6.75;76.83;101723.50;5045112;28;20056;-85
2022/03/17 02:03:27;;;;;;;24.05;16.85;;;;;;;6.72;76.76;101723.44;5048012;28;20040;-85
2022/03/17 02:05:54;;;;;;;26.90;17.08;;;;;;;6.68;76.81;101719.88;5023150;28;20380;-85
2022/03/17 02:08:21;;;;;;;24.33;17.33;;;;;;;6.68;77.10;101713.81;5023615;28;20083;-85
2022/03/17 02:13:32;;;;;;;25.33;15.95;;;;;;;6.67;77.20;101707.72;5042921;28;20039;-85
2022/03/17 02:16:02;;;;;;;26.63;17.58;;;;;;;6.66;77.61;101716.34;5038600;28;20056;-85
2022/03/17 02:18:28;;;;;;;27.75;16.60;;;;;;;6.64;77.13;101711.97;5042193;28;20135;-85
2022/03/17 02:20:57;;;;;;;20.98;15.45;;;;;;;6.61;76.92;101708.44;5032232;28;20560;-85
2022/03/17 02:26:10;;;;;;;24.65;16.98;;;;;;;6.58;77.48;101697.09;5039265;28;20398;-85
2022/03/17 02:28:37;;;;;;;26.50;19.10;;;;;;;6.54;77.70;101693.53;5037605;28;20049;-86
2022/03/17 02:31:05;;;;;;;26.08;16.42;;;;;;;6.53;77.67;101686.59;5045667;28;20079;-85
2022/03/17 02:33:32;;;;;;;27.15;17.35;;;;;;;6.51;78.04;101685.66;5025999;28;20131;-85
2022/03/17 02:35:58;;;;;;;27.13;16.77;;;;;;;6.50;77.96;101686.50;5040901;28;20044;-85
2022/03/17 02:38:26;;;;;;;27.98;18.15;;;;;;;6.50;78.24;101685.63;5039713;28;20047;-85
2022/03/17 02:40:53;;;;;;;26.50;16.70;;;;;;;6.49;78.29;101679.50;5027326;28;20053;-85
2022/03/17 02:43:20;;;;;;;26.88;17.55;;;;;;;6.48;78.43;101677.78;5026564;28;20127;-85
2022/03/17 02:45:47;;;;;;;27.42;18.25;;;;;;;6.48;78.55;101677.78;5028528;28;20052;-85
2022/03/17 02:48:15;;;;;;;27.45;16.90;;;;;;;6.46;78.41;101675.13;5037491;28;20060;-85
2022/03/17 02:50:41;;;;;;;25.38;17.00;;;;;;;6.42;78.66;101675.91;5042849;28;20048;-85
2022/03/17 02:53:11;;;;;;;23.40;17.17;;;;;;;6.41;78.80;101673.25;5028319;28;20041;-85
2022/03/17 02:55:40;;;;;;;28.63;18.02;;;;;;;6.40;79.17;101666.28;5038184;28;20060;-85
2022/03/17 02:58:09;;;;;;;26.05;17.40;;;;;;;6.38;78.86;101663.66;5043500;28;20048;-85
2022/03/17 03:00:37;;;;;;;27.30;17.55;;;;;;;6.36;79.29;101664.47;5044926;28;20046;-85
2022/03/17 03:03:05;;;;;;;29.20;17.60;;;;;;;6.33;79.31;101667.00;5039827;28;20547;-85
2022/03/17 03:05:32;;;;;;;32.45;18.02;;;;;;;6.34;79.42;101655.75;5036322;28;20482;-85
2022/03/17 03:07:58;;;;;;;28.05;17.05;;;;;;;6.33;79.83;101659.19;5043308;28;20048;-84
2022/03/17 03:10:25;;;;;;;30.27;19.02;;;;;;;6.28;79.71;101651.28;5028070;28;20056;-85
2022/03/17 03:12:52;;;;;;;32.17;18.20;;;;;;;6.28;79.85;101661.66;5042485;28;20045;-85
2022/03/17 03:15:19;;;;;;;29.75;17.58;;;;;;;6.27;80.30;101666.00;5021182;28;20110;-85
2022/03/17 03:17:46;;;;;;;31.02;19.23;;;;;;;6.26;80.02;101661.63;5046735;28;20628;-85
2022/03/17 03:20:12;;;;;;;26.33;17.92;;;;;;;6.26;80.26;101656.44;5037326;28;20048;-85
2022/03/17 03:22:40;;;;;;;25.90;17.65;;;;;;;6.27;79.76;101649.50;5043382;28;20044;-85
2022/03/17 03:25:09;;;;;;;28.67;17.40;;;;;;;6.28;80.11;101652.16;5035487;28;20045;-85
2022/03/17 03:27:39;;;;;;;30.63;18.40;;;;;;;6.28;80.01;101653.88;5037245;28;20041;-85
2022/03/17 03:30:09;;;;;;;26.50;18.17;;;;;;;6.29;79.98;101647.84;5038374;28;20045;-85
2022/03/17 03:32:36;;;;;;;29.70;20.48;;;;;;;6.29;79.82;101646.09;5035683;28;20059;-85
2022/03/17 03:37:22;;;;;;;27.92;17.55;;;;;;;6.28;80.02;101644.38;5037962;28;20056;-85
2022/03/17 03:37:49;;;;;;;29.48;18.10;;;;;;;6.28;80.16;101640.88;5043567;28;20041;-85
2022/03/17 03:40:15;;;;;;;28.73;17.88;;;;;;;6.28;80.11;101639.16;5039800;28;20045;-85
2022/03/17 03:42:42;;;;;;;29.33;18.83;;;;;;;6.27;80.23;101645.19;5040016;28;20044;-85
2022/03/17 03:45:09;;;;;;;28.50;17.98;;;;;;;6.27;80.11;101642.59;5060237;28;20045;-85
2022/03/17 03:47:36;;;;;;;28.92;18.42;;;;;;;6.29;79.93;101645.22;5041562;28;20067;-85
2022/03/17 03:50:04;;;;;;;31.95;20.45;;;;;;;6.32;80.24;101636.63;5056851;28;20048;-85
2022/03/17 03:52:30;;;;;;;32.58;19.13;;;;;;;6.33;80.21;101644.47;5039275;28;20082;-85
2022/03/17 03:54:57;;;;;;;34.20;21.63;;;;;;;6.35;79.90;101640.19;5020916;28;20060;-85
2022/03/17 03:57:24;;;;;;;29.58;18.73;;;;;;;6.37;80.03;101641.09;5026627;28;20076;-85
2022/03/17 03:59:51;;;;;;;29.98;18.52;;;;;;;6.38;79.65;101629.84;5042797;28;20175;-85
2022/03/17 04:02:18;;;;;;;26.35;17.65;;;;;;;6.38;79.72;101628.97;5024093;28;20049;-85
2022/03/17 04:04:45;;;;;;;28.85;18.55;;;;;;;6.37;79.76;101628.09;5036690;28;20050;-85
2022/03/17 04:07:12;;;;;;;31.52;19.65;;;;;;;6.38;79.80;101626.38;5038564;28;20052;-85
2022/03/17 04:09:42;;;;;;;27.65;17.95;;;;;;;6.36;80.00;101626.34;5028423;28;20060;-85
2022/03/17 04:12:14;;;;;;;26.20;18.17;;;;;;;6.37;79.96;101614.22;5039805;28;20041;-85
2022/03/17 04:14:40;;;;;;;34.83;20.00;;;;;;;6.36;80.07;101610.75;5043574;28;20048;-86
2022/03/17 04:17:07;;;;;;;29.20;18.30;;;;;;;6.35;80.06;101606.38;5043153;28;20056;-85
2022/03/17 04:19:34;;;;;;;30.38;19.10;;;;;;;6.35;80.09;101616.78;5041666;28;20052;-84
2022/03/17 04:22:01;;;;;;;24.83;17.85;;;;;;;6.35;79.97;101610.69;5043226;28;20055;-85
2022/03/17 04:24:27;;;;;;;29.45;19.83;;;;;;;6.35;80.22;101611.59;5039578;28;20061;-85
2022/03/17 04:26:53;;;;;;;29.55;19.02;;;;;;;6.37;80.19;101612.47;5028454;28;20048;-85
2022/03/17 04:29:20;;;;;;;28.52;18.25;;;;;;;6.38;80.27;101618.59;5039801;28;20048;-85
2022/03/17 04:31:47;;;;;;;34.25;20.05;;;;;;;6.39;80.17;101612.53;5045024;28;20053;-85
2022/03/17 04:34:14;;;;;;;29.10;18.58;;;;;;;6.40;80.20;101616.88;5044996;28;20081;-85
2022/03/17 04:36:40;;;;;;;28.98;19.13;;;;;;;6.42;80.03;101620.41;5022852;28;20052;-85
2022/03/17 04:39:10;;;;;;;31.67;21.17;;;;;;;6.42;80.11;101616.06;5029831;28;20062;-85
2022/03/17 04:41:37;;;;;;;30.05;18.83;;;;;;;6.44;79.66;101626.50;5026172;28;21412;-85
2022/03/17 04:44:04;;;;;;;35.47;23.25;;;;;;;6.48;79.50;101628.38;5041738;28;20044;-85
2022/03/17 04:46:30;;;;;;;28.80;19.30;;;;;;;6.51;79.43;101631.03;5047559;28;20048;-85
2022/03/17 04:48:57;;;;;;;27.98;18.52;;;;;;;6.55;79.08;101622.44;5045784;28;20061;-86
2022/03/17 04:51:24;;;;;;;29.48;19.13;;;;;;;6.58;78.91;101625.13;5060110;28;20118;-85
2022/03/17 04:53:51;;;;;;;35.10;20.90;;;;;;;6.64;78.56;101620.91;5026051;28;20046;-85
2022/03/17 04:56:19;;;;;;;33.10;19.52;;;;;;;6.65;78.75;101623.56;5026016;28;20053;-85
2022/03/17 04:58:46;;;;;;;34.58;20.55;;;;;;;6.69;78.62;101622.78;5036511;28;20052;-85
2022/03/17 05:01:14;;;;;;;29.67;20.60;;;;;;;6.74;78.13;101628.06;5037143;28;20045;-85
2022/03/17 05:03:42;;;;;;;28.05;18.60;;;;;;;6.77;78.04;101620.34;5008744;28;20049;-84
2022/03/17 05:06:13;;;;;;;30.70;19.98;;;;;;;6.80;77.91;101633.41;5019325;28;20126;-84
2022/03/17 05:08:40;;;;;;;30.75;19.67;;;;;;;6.81;77.80;101631.72;5037543;28;20132;-85
2022/03/17 05:11:09;;;;;;;33.25;21.00;;;;;;;6.83;77.73;101633.50;5024475;28;20439;-85
2022/03/17 05:13:36;;;;;;;28.70;17.90;;;;;;;6.83;77.85;101627.41;5037808;28;20746;-84
2022/03/17 05:16:09;;;;;;;31.63;20.30;;;;;;;6.82;77.74;101630.84;5051486;28;20059;-86
2022/03/17 05:18:36;;;;;;;29.02;20.27;;;;;;;6.85;77.67;101631.78;5038301;28;20130;-85
2022/03/17 05:21:04;;;;;;;35.17;19.73;;;;;;;6.88;77.41;101637.09;5014656;28;20088;-85
2022/03/17 05:23:31;;;;;;;28.80;19.13;;;;;;;6.90;77.15;101637.97;5037398;28;20268;-85
2022/03/17 05:25:59;;;;;;;31.42;20.63;;;;;;;6.92;77.09;101646.72;5023666;28;20061;-85
2022/03/17 05:28:26;;;;;;;33.10;21.27;;;;;;;6.95;77.10;101645.91;5042042;28;20454;-85
2022/03/17 05:30:52;;;;;;;30.48;20.40;;;;;;;6.97;77.20;101654.59;5045713;28;20057;-85
2022/03/17 05:33:21;;;;;;;30.13;19.52;;;;;;;6.97;77.02;101652.00;5041705;28;20049;-85
2022/03/17 05:35:47;;;;;;;28.92;19.33;;;;;;;6.95;77.17;101653.72;5041393;28;20569;-85
2022/03/17 05:38:14;;;;;;;34.45;22.60;;;;;;;6.97;77.05;101657.22;5039511;28;20051;-85
2022/03/17 05:40:40;;;;;;;28.98;20.67;;;;;;;6.96;77.05;101658.03;5055628;28;20057;-85
2022/03/17 05:43:10;;;;;;;31.40;19.55;;;;;;;6.96;77.11;101655.44;5025547;28;20052;-85
2022/03/17 05:45:40;;;;;;;32.80;20.90;;;;;;;6.96;77.00;101660.66;5044182;28;20045;-85
2022/03/17 05:48:08;;;;;;;32.72;20.60;;;;;;;6.99;76.81;101662.44;5038630;28;20160;-85
2022/03/17 05:50:41;;;;;;;30.30;21.42;;;;;;;7.01;76.87;101655.56;5020059;28;20059;-85
2022/03/17 05:53:10;;;;;;;29.53;21.40;;;;;;;7.01;77.10;101661.63;5053932;28;20438;-85
2022/03/17 05:55:36;;;;;;;30.48;21.15;;;;;;;7.01;76.82;101668.56;5021926;28;20038;-86
2022/03/17 05:58:04;;;;;;;29.33;20.20;;;;;;;7.02;76.96;101667.75;5042221;28;20489;-85
2022/03/17 06:00:33;;;;;;;30.33;20.17;;;;;;;7.04;76.70;101671.25;5025816;28;20467;-85
2022/03/17 06:03:00;;;;;;;33.83;19.95;;;;;;;7.05;76.68;101679.09;5045100;28;20275;-85
2022/03/17 06:05:29;;;;;;;29.40;19.23;;;;;;;7.08;76.31;101679.16;5041127;28;20040;-85
2022/03/17 06:08:00;;;;;;;33.65;20.25;;;;;;;7.11;76.65;101688.75;5039660;28;20048;-85
2022/03/17 06:10:32;;;;;;;30.02;21.25;;;;;;;7.14;76.23;101687.97;5022590;28;20049;-85
2022/03/17 06:13:03;;;;;;;31.92;21.17;;;;;;;7.18;75.92;101690.63;5038977;28;20052;-86
2022/03/17 06:15:31;;;;;;;31.52;20.58;;;;;;;7.21;76.27;101687.22;5024621;28;20080;-85
2022/03/17 06:18:04;;;;;;;31.48;21.65;;;;;;;7.24;75.85;101700.34;5043627;28;20068;-85
2022/03/17 06:20:34;;;;;;;33.30;19.93;;;;;;;7.27;75.88;101696.06;5039159;28;20055;-85
2022/03/17 06:23:03;;;;;;;30.48;20.27;;;;;;;7.32;75.90;101692.69;5026533;28;20443;-86
2022/03/17 06:25:34;;;;;;;31.88;21.10;;;;;;;7.34;75.65;101697.09;5045634;28;20053;-85
2022/03/17 06:28:01;;;;;;;31.52;21.10;;;;;;;7.35;76.18;101695.34;5015605;28;20045;-85
2022/03/17 06:30:30;;;;;;;30.35;21.20;;;;;;;7.36;75.86;101694.50;5042540;28;20132;-85
2022/03/17 06:32:57;;;;;;;31.40;21.10;;;;;;;7.36;76.01;101697.09;5027516;28;20049;-85
2022/03/17 06:35:26;;;;;;;35.95;22.15;;;;;;;7.35;75.31;101698.81;5040260;28;20122;-85
2022/03/17 06:38:00;;;;;;;31.35;20.80;;;;;;;7.39;75.72;101694.56;5031808;28;20530;-85
2022/03/17 06:40:28;;;;;;;31.38;21.67;;;;;;;7.45;74.57;101702.50;5027769;28;20045;-85
2022/03/17 06:42:56;;;;;;;29.80;20.75;;;;;;;7.55;74.23;101695.78;5027024;28;20056;-85
2022/03/17 06:45:24;;;;;;;33.25;20.65;;;;;;;7.65;72.97;101697.69;5028696;28;20053;-85
2022/03/17 06:47:51;;;;;;;31.85;21.77;;;;;;;7.77;72.15;101699.69;5029177;28;20053;-85
2022/03/17 06:50:22;;;;;;;29.25;20.10;;;;;;;7.87;71.62;101698.97;5028712;28;20049;-86
2022/03/17 06:52:50;;;;;;;32.60;21.48;;;;;;;7.97;70.79;101704.41;5026554;28;20103;-84
2022/03/17 06:55:17;;;;;;;33.08;21.15;;;;;;;8.10;70.46;101707.25;5028245;28;20354;-85
2022/03/17 06:57:43;;;;;;;29.40;22.88;;;;;;;8.20;68.79;101700.47;5054430;28;20359;-85
2022/03/17 07:00:14;;;;;;;37.83;20.77;;;;;;;8.31;68.52;101699.78;5024735;28;20057;-85
2022/03/17 07:02:41;;;;;;;36.45;22.52;;;;;;;8.40;67.65;101706.03;5030423;28;20052;-84
2022/03/17 07:05:08;;;;;;;32.45;21.52;;;;;;;8.49;67.15;101714.91;5042923;28;20048;-85
2022/03/17 07:07:35;;;;;;;30.95;21.83;;;;;;;8.55;66.97;101722.81;5038684;28;20061;-85
2022/03/17 07:10:02;;;;;;;31.58;21.67;;;;;;;8.61;67.15;101725.53;5029155;28;20057;-87
2022/03/17 07:12:29;;;;;;;30.13;21.25;;;;;;;8.66;66.60;101723.88;5043104;28;20048;-85
2022/03/17 07:14:56;;;;;;;30.17;20.35;;;;;;;8.70;66.06;101741.34;5037527;28;20044;-86
2022/03/17 07:17:24;;;;;;;34.20;22.45;;;;;;;8.73;66.35;101735.31;5011891;28;20049;-86
2022/03/17 07:22:27;;;;;;;31.35;21.30;;;;;;;8.77;65.47;101740.59;5046835;28;20079;-86
2022/03/17 07:24:54;;;;;;;32.17;22.13;;;;;;;8.84;64.95;101738.97;5035195;28;20147;-86
2022/03/17 07:27:21;;;;;;;29.35;21.13;;;;;;;8.82;65.36;101730.22;5039684;28;20127;-86
2022/03/17 07:29:49;;;;;;;30.77;21.00;;;;;;;8.82;65.08;101738.06;5068362;28;20091;-86
2022/03/17 07:32:16;;;;;;;27.30;21.55;;;;;;;8.81;65.08;101738.91;5069324;28;20093;-85
2022/03/17 07:34:42;;;;;;;32.63;22.00;;;;;;;8.85;65.29;101742.44;5038353;28;20055;-87
2022/03/17 07:37:09;;;;;;;32.47;21.58;;;;;;;8.84;65.21;101749.41;5027187;28;20571;-86
2022/03/17 07:39:36;;;;;;;32.83;20.80;;;;;;;8.81;65.33;101751.97;5047098;28;20063;-86
2022/03/17 07:42:04;;;;;;;32.28;21.33;;;;;;;8.82;65.10;101765.91;5039453;28;20124;-86
2022/03/17 07:44:31;;;;;;;33.90;22.17;;;;;;;8.81;64.82;101764.16;5031240;28;20126;-87
2022/03/17 07:46:58;;;;;;;30.58;22.10;;;;;;;8.84;64.81;101764.19;5035018;28;20051;-86
2022/03/17 07:49:24;;;;;;;31.02;22.45;;;;;;;8.85;64.89;101761.63;5030499;28;20096;-87
2022/03/17 07:51:51;;;;;;;30.25;20.67;;;;;;;8.85;64.98;101771.16;5031328;28;20044;-87
2022/03/17 07:54:17;;;;;;;30.23;22.92;;;;;;;8.86;65.05;101776.41;5030344;28;20068;-87
2022/03/17 07:56:44;;;;;;;31.25;19.95;;;;;;;8.90;64.82;101772.13;5031691;28;20041;-86
2022/03/17 07:59:11;;;;;;;29.83;21.63;;;;;;;8.90;64.99;101778.25;5049315;28;20045;-87
2022/03/17 08:01:37;;;;;;;31.80;21.48;;;;;;;8.93;65.04;101774.81;5025774;28;20502;-87
2022/03/17 08:04:05;;;;;;;32.10;21.40;;;;;;;8.94;65.06;101769.59;5044730;28;20463;-86
2022/03/17 08:06:33;;;;;;;34.20;23.92;;;;;;;8.94;65.05;101774.81;5030146;28;20159;-86
2022/03/17 08:09:04;;;;;;;30.42;20.65;;;;;;;8.95;65.26;101767.84;5051252;28;20044;-85
2022/03/17 08:11:30;;;;;;;29.02;22.85;;;;;;;8.95;65.12;101775.69;5058307;28;20045;-86
2022/03/17 08:13:57;;;;;;;27.95;20.60;;;;;;;8.95;65.64;101775.69;5060531;28;20044;-87
2022/03/17 08:16:23;;;;;;;29.35;23.05;;;;;;;8.96;65.32;101784.38;5030199;28;20051;-86
2022/03/17 08:18:50;;;;;;;28.42;20.65;;;;;;;9.00;65.29;101778.38;5042330;28;20047;-86
2022/03/17 08:21:18;;;;;;;31.63;21.65;;;;;;;9.02;65.47;101784.50;5042254;28;20040;-86
2022/03/17 08:23:45;;;;;;;29.50;20.48;;;;;;;9.00;65.27;101774.03;5040014;28;20151;-85
2022/03/17 08:26:14;;;;;;;30.33;20.73;;;;;;;9.02;65.24;101789.72;5059861;28;20079;-86
2022/03/17 08:28:41;;;;;;;29.52;21.00;;;;;;;9.02;65.23;101788.00;5030836;28;20836;-85
2022/03/17 08:31:07;;;;;;;29.50;21.27;;;;;;;9.00;65.38;101786.22;5031381;28;20059;-86
2022/03/17 08:33:35;;;;;;;28.50;20.98;;;;;;;8.98;65.23;101780.94;5031956;28;20796;-84
2022/03/17 08:36:01;;;;;;;30.17;21.45;;;;;;;8.94;65.27;101798.31;5045177;28;20045;-87
2022/03/17 08:38:28;;;;;;;31.13;21.02;;;;;;;8.95;65.44;101807.03;5032492;28;20483;-86
2022/03/17 08:40:54;;;;;;;27.92;20.80;;;;;;;8.95;65.02;101804.41;5042419;28;20068;-85
2022/03/17 08:43:21;;;;;;;31.85;21.63;;;;;;;8.93;66.36;101814.84;5029758;28;20395;-85
2022/03/17 08:51:23;;;;;;;30.58;21.23;;;;;;;8.81;69.14;101829.41;5033180;28;20040;-86
2022/03/17 08:53:50;;;;;;;35.70;22.90;;;;;;;8.76;70.07;101826.72;5025904;28;20099;-86
2022/03/17 08:56:17;;;;;;;34.97;23.85;;;;;;;8.73;70.48;101829.28;5046679;28;20452;-85
2022/03/17 08:58:44;;;;;;;30.30;21.20;;;;;;;8.70;71.22;101832.72;5028680;28;20090;-87
2022/03/17 09:01:11;;;;;;;30.42;21.48;;;;;;;8.69;71.21;101844.00;5034089;28;20434;-86
2022/03/17 09:03:37;;;;;;;31.33;21.50;;;;;;;8.69;70.88;101838.78;5034044;28;20080;-84
2022/03/17 09:06:04;;;;;;;30.08;23.52;;;;;;;8.70;70.48;101840.53;5043917;28;20130;-85
2022/03/17 09:08:31;;;;;;;30.08;21.35;;;;;;;8.72;70.50;101836.25;5049225;28;20072;-85
2022/03/17 09:10:58;;;;;;;30.17;20.70;;;;;;;8.76;70.06;101840.66;5064776;28;20052;-85
2022/03/17 09:13:26;;;;;;;30.63;21.05;;;;;;;8.81;69.64;101842.47;5051240;28;20056;-86
2022/03/17 09:15:55;;;;;;;35.78;21.70;;;;;;;8.86;69.11;101844.31;5037348;28;20045;-85
2022/03/17 09:18:23;;;;;;;35.20;22.85;;;;;;;8.88;69.32;101847.84;5031233;28;20051;-85
2022/03/17 09:20:50;;;;;;;31.25;21.90;;;;;;;8.93;69.10;101851.41;5067071;28;20045;-85
2022/03/17 09:23:18;;;;;;;29.08;22.77;;;;;;;9.01;68.92;101851.53;5031405;28;20453;-86
2022/03/17 09:25:45;;;;;;;28.67;20.98;;;;;;;9.05;69.42;101865.53;5036637;28;20047;-85
2022/03/17 09:28:13;;;;;;;33.45;23.48;;;;;;;9.08;70.29;101868.19;5047926;28;20143;-84
2022/03/17 09:30:41;;;;;;;34.88;21.05;;;;;;;9.05;72.08;101875.97;5037294;28;20045;-85
2022/03/17 09:33:09;;;;;;;30.92;22.17;;;;;;;8.98;73.23;101874.09;5033066;28;20059;-86
2022/03/17 09:35:36;;;;;;;30.05;22.75;;;;;;;8.86;75.32;101880.00;5014233;28;20141;-86
2022/03/17 09:38:05;;;;;;;35.78;23.17;;;;;;;8.75;76.40;101892.84;5050753;28;20047;-86
2022/03/17 09:40:32;;;;;;;36.35;24.10;;;;;;;8.66;78.32;101895.31;5030672;28;20152;-85
2022/03/17 09:45:42;;;;;;;36.15;24.60;;;;;;;8.48;82.19;101904.53;5052533;28;20037;-85
2022/03/17 09:48:14;;;;;;;33.13;24.83;;;;;;;8.37;83.56;101906.00;5050237;28;20074;-85
2022/03/17 09:50:43;;;;;;;36.17;25.00;;;;;;;8.28;85.21;101906.69;5051788;28;20052;-85
2022/03/17 09:53:10;;;;;;;41.10;24.65;;;;;;;8.24;86.66;101923.16;5031311;28;20049;-86
2022/03/17 09:55:41;;;;;;;34.35;24.10;;;;;;;8.21;88.49;101920.44;5050214;28;20039;-85
2022/03/17 09:58:08;;;;;;;38.15;25.42;;;;;;;8.18;89.35;101923.00;5052027;28;20040;-85
2022/03/17 10:03:21;;;;;;;34.78;24.40;;;;;;;8.03;92.07;101932.25;5043401;28;20056;-86
2022/03/17 10:05:50;;;;;;;39.17;27.00;;;;;;;7.99;93.34;101934.75;5030381;28;20041;-85
2022/03/17 10:08:18;;;;;;;38.15;25.20;;;;;;;7.97;93.44;101937.34;5033293;28;20052;-86
2022/03/17 10:10:45;;;;;;;40.72;26.30;;;;;;;7.95;93.42;101945.13;5049498;28;20048;-86
2022/03/17 10:13:19;;;;;;;38.67;25.70;;;;;;;7.96;94.01;101953.81;5050253;28;20045;-86
2022/03/17 10:16:12;;;;;;;42.22;27.83;;;;;;;7.92;95.31;101957.22;5049967;28;20479;-86
2022/03/17 10:18:40;;;;;;;39.95;25.52;;;;;;;7.90;95.02;101965.00;5044485;28;20136;-86
2022/03/17 10:21:16;;;;;;;39.25;28.27;;;;;;;7.90;95.08;101959.78;5034101;28;20060;-86
2022/03/17 10:24:06;;;;;;;41.53;26.77;;;;;;;7.93;96.25;101974.63;5022242;28;20040;-86
2022/03/17 10:26:42;;;;;;;46.83;27.38;;;;;;;7.92;97.65;101975.47;5053830;28;20052;-86
2022/03/17 10:29:21;;;;;;;38.35;27.08;;;;;;;7.86;98.67;101988.34;5057416;28;20048;-86
2022/03/17 10:32:07;;;;;;;40.17;26.63;;;;;;;7.81;100.00;101996.06;5057965;28;20524;-86
2022/03/17 10:34:48;;;;;;;38.33;27.33;;;;;;;7.80;100.00;102007.34;5049256;28;20098;-86
2022/03/17 10:37:17;;;;;;;40.30;26.50;;;;;;;7.85;100.00;102013.53;5051001;28;20043;-85
2022/03/17 10:40:01;;;;;;;35.65;22.83;;;;;;;7.85;100.00;102008.31;5051821;28;20063;-86
2022/03/17 10:42:30;;;;;;;32.50;20.70;;;;;;;7.73;100.00;102029.78;5066028;28;20070;-85
2022/03/17 10:45:03;;;;;;;29.15;19.17;;;;;;;7.64;100.00;102039.97;5034838;28;20124;-86
2022/03/17 10:47:37;;;;;;;28.45;19.15;;;;;;;7.57;100.00;102049.34;5053227;28;20067;-86
2022/03/17 10:50:17;;;;;;;31.67;18.27;;;;;;;7.51;100.00;102051.78;5056825;28;20111;-87
2022/03/17 10:53:00;;;;;;;23.65;16.42;;;;;;;7.48;100.00;102058.63;5049961;28;20086;-86
2022/03/17 10:55:34;;;;;;;20.23;12.95;;;;;;;7.47;100.00;102077.72;5036240;28;20048;-86
2022/03/17 10:58:21;;;;;;;17.10;11.48;;;;;;;7.43;100.00;102080.25;5052228;28;20050;-86
2022/03/17 11:00:52;;;;;;;19.77;10.38;;;;;;;7.44;100.00;102083.72;5038673;28;20494;-86
2022/03/17 11:03:21;;;;;;;11.23;9.43;;;;;;;7.42;100.00;102093.25;5049165;28;20041;-86
2022/03/17 11:05:51;;;;;;;12.43;8.30;;;;;;;7.33;100.00;102106.00;5032506;28;20533;-87
2022/03/17 11:08:22;;;;;;;12.38;7.60;;;;;;;7.27;100.00;102101.50;5047556;28;20058;-86
2022/03/17 11:10:50;;;;;;;11.00;7.45;;;;;;;7.23;100.00;102112.66;5037513;28;20032;-86
2022/03/17 11:13:17;;;;;;;10.38;6.93;;;;;;;7.22;100.00;102121.31;5051308;28;20071;-87
2022/03/17 11:15:52;;;;;;;9.85;7.00;;;;;;;7.23;100.00;102118.75;5040075;28;20105;-86
2022/03/17 11:18:22;;;;;;;16.13;7.78;;;;;;;7.24;100.00;102130.06;5058770;28;20110;-85
2022/03/17 11:20:48;;;;;;;10.48;6.60;;;;;;;7.22;100.00;102136.94;5047841;28;20041;-86
2022/03/17 11:23:20;;;;;;;10.32;7.35;;;;;;;7.19;100.00;102142.09;5048076;28;20115;-86
2022/03/17 11:26:00;;;;;;;9.38;6.50;;;;;;;7.19;100.00;102155.09;5049884;28;20044;-85
2022/03/17 11:28:39;;;;;;;10.20;7.07;;;;;;;7.16;100.00;102140.28;5048816;28;20048;-86
2022/03/17 11:31:12;;;;;;;9.13;6.85;;;;;;;7.17;100.00;102152.47;5054638;28;20052;-86
2022/03/17 11:33:42;;;;;;;;;;;;;;;7.16;100.00;102153.28;5035350;28;20045;-86
2022/03/17 11:36:09;;;;;;;9.63;6.78;;;;;;;7.18;100.00;102155.94;5059948;28;19921;-87
2022/03/17 11:38:37;;;;;;;8.82;7.13;;;;;;;7.20;100.00;102155.13;5067712;28;20514;-86
2022/03/17 11:41:13;;;;;;;12.55;6.90;;;;;;;7.23;100.00;102167.38;5039201;28;20055;-85